createdAt,value
2023-01-17T09:49:49.770Z,18.63
2023-01-17T09:52:20.333Z,18.25
2023-01-17T09:54:49.674Z,18.14
2023-01-17T09:57:32.040Z,18.06
2023-01-17T10:00:08.728Z,17.99
2023-01-17T10:02:48.246Z,17.92
2023-01-17T10:05:44.271Z,17.90
2023-01-17T10:08:25.538Z,17.87
2023-01-17T10:11:05.048Z,17.85
2023-01-17T10:13:40.930Z,17.82
2023-01-17T10:16:20.336Z,17.78
2023-01-17T10:19:08.014Z,17.79
2023-01-17T10:21:54.511Z,17.77
2023-01-17T10:24:54.857Z,17.76
2023-01-17T10:27:25.986Z,17.75
2023-01-17T10:29:54.217Z,17.73
2023-01-17T10:32:24.369Z,17.72
2023-01-17T10:34:53.308Z,17.67
2023-01-17T10:37:26.343Z,17.70
2023-01-17T10:39:56.862Z,17.70
2023-01-17T10:42:29.227Z,17.69
2023-01-17T10:45:03.450Z,17.64
2023-01-17T10:47:32.737Z,17.68
2023-01-17T10:50:04.576Z,17.66
2023-01-17T10:52:42.695Z,17.65
2023-01-17T10:55:23.401Z,17.61
2023-01-17T10:57:52.093Z,17.60
2023-01-17T11:00:33.807Z,17.61
2023-01-17T11:03:02.970Z,17.63
2023-01-17T11:05:32.577Z,17.63
2023-01-17T11:08:02.895Z,17.63
2023-01-17T11:10:39.140Z,17.64
2023-01-17T11:13:19.147Z,17.63
2023-01-17T11:15:50.874Z,17.63
2023-01-17T11:18:20.841Z,17.64
2023-01-17T11:20:49.536Z,17.60
2023-01-17T11:23:20.387Z,17.64
2023-01-17T11:25:54.793Z,17.64
2023-01-17T11:28:25.650Z,17.65
2023-01-17T11:30:56.556Z,17.61
2023-01-17T11:33:44.596Z,17.65
2023-01-17T11:36:18.370Z,17.65
2023-01-17T11:38:57.800Z,17.64
2023-01-17T11:41:27.549Z,17.65
2023-01-17T11:43:57.312Z,17.62
2023-01-17T11:46:27.592Z,17.66
2023-01-17T11:48:57.439Z,17.66
2023-01-17T11:51:28.598Z,17.66
2023-01-17T11:54:18.448Z,17.66
2023-01-17T11:56:46.714Z,17.67
2023-01-17T11:59:24.761Z,17.67
2023-01-17T12:02:12.439Z,17.64
2023-01-17T12:04:41.846Z,17.67
2023-01-17T12:07:22.983Z,17.65
2023-01-17T12:09:59.928Z,17.68
2023-01-17T12:13:01.177Z,17.68
2023-01-17T12:15:39.345Z,17.66
2023-01-17T12:18:21.341Z,17.66
2023-01-17T12:20:55.150Z,17.65
2023-01-17T12:23:36.048Z,17.68
2023-01-17T12:26:12.412Z,17.69
2023-01-17T12:28:58.862Z,17.66
2023-01-17T12:31:27.920Z,17.69
2023-01-17T12:33:58.231Z,17.65
2023-01-17T12:36:35.728Z,17.68
2023-01-17T12:39:09.544Z,17.68
2023-01-17T12:41:48.049Z,17.65
2023-01-17T12:44:18.055Z,17.67
2023-01-17T12:46:50.688Z,17.65
2023-01-17T12:49:23.985Z,17.65
2023-01-17T12:51:55.554Z,17.68
2023-01-17T12:54:29.183Z,17.68
2023-01-17T12:57:02.100Z,17.68
2023-01-17T12:59:35.005Z,17.67
2023-01-17T13:02:13.636Z,17.66
2023-01-17T13:04:58.042Z,17.69
2023-01-17T13:07:35.338Z,17.70
2023-01-17T13:10:11.495Z,17.70
2023-01-17T13:12:39.980Z,17.70
2023-01-17T13:15:15.392Z,17.70
2023-01-17T13:17:46.459Z,17.67
2023-01-17T13:20:22.020Z,17.69
2023-01-17T13:22:51.316Z,17.69
2023-01-17T13:25:32.411Z,17.69
2023-01-17T13:28:10.466Z,17.69
2023-01-17T13:31:18.902Z,17.69
2023-01-17T13:33:59.286Z,17.69
2023-01-17T13:36:29.824Z,17.67
2023-01-17T13:39:22.056Z,17.69
2023-01-17T13:41:54.135Z,17.65
2023-01-17T13:44:25.848Z,17.69
2023-01-17T13:47:00.169Z,17.65
2023-01-17T13:49:43.393Z,17.69
2023-01-17T13:52:33.090Z,17.66
2023-01-17T13:55:03.422Z,17.70
2023-01-17T13:57:42.891Z,17.70
2023-01-17T14:00:50.101Z,17.70
2023-01-17T14:03:50.482Z,17.67
2023-01-17T14:06:43.666Z,17.69
2023-01-17T14:09:20.692Z,17.69
2023-01-17T14:12:00.690Z,17.65
2023-01-17T14:14:51.391Z,17.65
2023-01-17T14:17:51.088Z,17.68
2023-01-17T14:20:44.963Z,17.67
2023-01-17T14:23:26.057Z,17.68
2023-01-17T14:25:54.275Z,17.68
2023-01-17T14:28:29.072Z,17.69
2023-01-17T14:30:59.512Z,17.66
2023-01-17T14:33:29.832Z,17.66
2023-01-17T14:35:58.930Z,17.66
2023-01-17T14:38:29.272Z,17.70
2023-01-17T14:40:59.089Z,17.70
2023-01-17T14:43:28.784Z,17.70
2023-01-17T14:45:58.647Z,17.68
2023-01-17T14:48:27.159Z,17.71
2023-01-17T14:50:59.326Z,17.71
2023-01-17T14:53:28.748Z,17.70
2023-01-17T14:55:59.741Z,17.70
2023-01-17T14:58:29.721Z,17.71
2023-01-17T15:01:00.361Z,17.71
2023-01-17T15:03:30.259Z,17.70
2023-01-17T15:06:11.247Z,17.67
2023-01-17T15:08:39.724Z,17.71
2023-01-17T15:11:10.635Z,17.71
2023-01-17T15:13:44.573Z,17.71
2023-01-17T15:16:22.116Z,17.71
2023-01-17T15:18:51.260Z,17.71
2023-01-17T15:21:20.819Z,17.72
2023-01-17T15:23:51.710Z,17.68
2023-01-17T15:26:21.105Z,17.67
2023-01-17T15:28:49.386Z,17.71
2023-01-17T15:31:21.553Z,17.68
2023-01-17T15:33:53.940Z,17.71
2023-01-17T15:36:29.403Z,17.70
2023-01-17T15:38:59.773Z,17.70
2023-01-17T15:41:30.911Z,17.69
2023-01-17T15:43:59.604Z,17.71
2023-01-17T15:46:38.218Z,17.71
2023-01-17T15:49:13.235Z,17.71
2023-01-17T15:51:47.568Z,17.67
2023-01-17T15:54:25.557Z,17.70
2023-01-17T15:57:03.875Z,17.65
2023-01-17T15:59:44.812Z,17.68
2023-01-17T16:02:43.491Z,17.68
2023-01-17T16:05:45.313Z,17.68
2023-01-17T16:08:31.574Z,17.64
2023-01-17T16:11:01.744Z,17.64
2023-01-17T16:13:31.593Z,17.67
2023-01-17T16:16:21.456Z,17.66
2023-01-17T16:18:52.233Z,17.66
2023-01-17T16:21:24.045Z,17.66
2023-01-17T16:23:52.547Z,17.66
2023-01-17T16:26:21.159Z,17.66
2023-01-17T16:28:49.443Z,17.66
2023-01-17T16:31:18.193Z,17.63
2023-01-17T16:33:49.970Z,17.62
2023-01-17T16:36:20.179Z,17.65
2023-01-17T16:38:50.272Z,17.65
2023-01-17T16:41:19.287Z,17.65
2023-01-17T16:43:57.436Z,17.65
2023-01-17T16:46:25.839Z,17.65
2023-01-17T16:48:54.079Z,17.65
2023-01-17T16:51:22.410Z,17.65
2023-01-17T16:53:50.618Z,17.65
2023-01-17T16:56:19.632Z,17.65
2023-01-17T16:58:47.859Z,17.65
2023-01-17T17:01:20.256Z,17.65
2023-01-17T17:03:48.896Z,17.64
2023-01-17T17:06:17.108Z,17.65
2023-01-17T17:08:45.363Z,17.64
2023-01-17T17:11:15.812Z,17.64
2023-01-17T17:13:45.626Z,17.64
2023-01-17T17:16:16.848Z,17.65
2023-01-17T17:18:46.445Z,17.64
2023-01-17T17:21:14.757Z,17.64
2023-01-17T17:23:42.976Z,17.65
2023-01-17T17:26:10.316Z,17.62
2023-01-17T17:28:38.496Z,17.63
2023-01-17T17:31:06.935Z,17.63
2023-01-17T17:33:36.223Z,17.59
2023-01-17T17:36:06.845Z,17.63
2023-01-17T17:38:35.087Z,17.63
2023-01-17T17:41:09.054Z,17.63
2023-01-17T17:43:39.856Z,17.63
2023-01-17T17:46:08.657Z,17.64
2023-01-17T17:48:37.287Z,17.64
2023-01-17T17:51:06.316Z,17.64
2023-01-17T17:53:34.557Z,17.65
2023-01-17T17:56:07.053Z,17.62
2023-01-17T17:58:35.747Z,17.64
2023-01-17T18:01:05.842Z,17.65
2023-01-17T18:03:34.034Z,17.65
2023-01-17T18:06:04.001Z,17.65
2023-01-17T18:08:33.553Z,17.65
2023-01-17T18:11:03.225Z,17.65
2023-01-17T18:13:32.856Z,17.62
2023-01-17T18:16:04.777Z,17.66
2023-01-17T18:18:33.110Z,17.62
2023-01-17T18:21:09.427Z,17.66
2023-01-17T18:23:39.368Z,17.65
2023-01-17T18:26:15.605Z,17.65
2023-01-17T18:28:44.027Z,17.62
2023-01-17T18:31:12.550Z,17.64
2023-01-17T18:33:41.140Z,17.61
2023-01-17T18:36:10.948Z,17.64
2023-01-17T18:38:40.348Z,17.60
2023-01-17T18:41:10.859Z,17.63
2023-01-17T18:43:39.479Z,17.60
2023-01-17T18:46:08.857Z,17.61
2023-01-17T18:48:37.916Z,17.63
2023-01-17T18:51:08.248Z,17.63
2023-01-17T18:53:37.743Z,17.62
2023-01-17T18:56:08.938Z,17.62
2023-01-17T18:58:38.727Z,17.61
2023-01-17T19:01:09.454Z,17.58
2023-01-17T19:03:39.066Z,17.60
2023-01-17T19:06:10.102Z,17.60
2023-01-17T19:08:38.995Z,17.60
2023-01-17T19:11:07.756Z,17.56
2023-01-17T19:13:37.259Z,17.59
2023-01-17T19:16:08.911Z,17.59
2023-01-17T19:18:37.208Z,17.55
2023-01-17T19:21:06.878Z,17.57
2023-01-17T19:23:36.474Z,17.58
2023-01-17T19:26:07.565Z,17.58
2023-01-17T19:28:37.888Z,17.56
2023-01-17T19:31:07.725Z,17.53
2023-01-17T19:33:37.529Z,17.58
2023-01-17T19:36:08.558Z,17.57
2023-01-17T19:38:37.620Z,17.57
2023-01-17T19:41:10.611Z,17.58
2023-01-17T19:43:40.275Z,17.58
2023-01-17T19:46:09.086Z,17.56
2023-01-17T19:48:38.456Z,17.57
2023-01-17T19:51:09.224Z,17.58
2023-01-17T19:53:38.139Z,17.59
2023-01-17T19:56:08.921Z,17.59
2023-01-17T19:58:37.579Z,17.55
2023-01-17T20:01:07.774Z,17.61
2023-01-17T20:03:36.609Z,17.62
2023-01-17T20:06:05.842Z,17.63
2023-01-17T20:08:34.185Z,17.65
2023-01-17T20:22:30.584Z,12.75
2023-01-17T20:25:02.698Z,11.37
2023-01-17T20:27:35.380Z,10.16
2023-01-17T20:30:19.837Z,9.12
2023-01-17T20:32:53.108Z,8.14
2023-01-17T20:35:25.907Z,7.36
2023-01-17T20:37:58.760Z,6.67
2023-01-17T20:40:31.819Z,6.04
2023-01-17T20:43:04.086Z,5.49
2023-01-17T20:45:36.434Z,4.95
2023-01-17T20:48:09.050Z,4.53
2023-01-17T20:50:41.416Z,4.12
2023-01-17T20:53:14.083Z,3.78
2023-01-17T20:55:46.579Z,3.51
2023-01-17T20:58:18.966Z,3.32
2023-01-17T21:00:52.551Z,3.14
2023-01-17T21:03:29.117Z,2.95
2023-01-17T21:06:05.603Z,2.79
2023-01-17T21:08:39.491Z,2.60
2023-01-17T21:11:13.781Z,2.40
2023-01-17T21:13:48.914Z,2.22
2023-01-17T21:16:23.045Z,2.09
2023-01-17T21:18:55.512Z,2.00
2023-01-17T21:21:29.234Z,1.96
2023-01-17T21:24:02.135Z,1.94
2023-01-17T21:26:35.092Z,1.92
2023-01-17T21:29:07.460Z,1.85
2023-01-17T21:31:42.792Z,1.87
2023-01-17T21:34:15.541Z,1.83
2023-01-17T21:36:47.795Z,1.74
2023-01-17T21:39:20.716Z,1.65
2023-01-17T21:41:53.670Z,1.65
2023-01-17T21:44:26.898Z,1.61
2023-01-17T21:47:00.022Z,1.60
2023-01-17T21:49:32.667Z,1.55
2023-01-17T21:52:20.467Z,1.56
2023-01-17T21:55:10.540Z,1.53
2023-01-17T21:58:00.654Z,1.49
2023-01-17T22:00:32.907Z,1.44
2023-01-17T22:03:05.331Z,1.40
2023-01-17T22:05:37.804Z,1.38
2023-01-17T22:08:12.972Z,1.38
2023-01-17T22:10:48.218Z,1.41
2023-01-17T22:13:21.077Z,1.39
2023-01-17T22:16:02.659Z,1.41
2023-01-17T22:18:37.332Z,1.42
2023-01-17T22:21:12.056Z,1.41
2023-01-17T22:23:49.178Z,1.38
2023-01-17T22:26:22.239Z,1.35
2023-01-17T22:28:56.087Z,1.34
2023-01-17T22:31:29.784Z,1.39
2023-01-17T22:34:03.655Z,1.40
2023-01-17T22:36:37.619Z,1.39
2023-01-17T22:39:10.632Z,1.39
2023-01-17T22:41:42.860Z,1.41
2023-01-17T22:44:15.214Z,1.41
2023-01-17T22:46:48.277Z,1.38
2023-01-17T22:49:23.515Z,1.41
2023-01-17T22:51:55.730Z,1.44
2023-01-17T22:54:28.166Z,1.48
2023-01-17T22:57:00.401Z,1.51
2023-01-17T22:59:34.055Z,1.51
2023-01-17T23:02:06.532Z,1.51
2023-01-17T23:04:38.763Z,1.51
2023-01-17T23:07:10.957Z,1.47
2023-01-17T23:09:43.133Z,1.42
2023-01-17T23:12:15.285Z,1.42
2023-01-17T23:15:05.501Z,1.44
2023-01-17T23:17:55.720Z,1.47
2023-01-17T23:20:27.958Z,1.49
2023-01-17T23:23:00.559Z,1.50
2023-01-17T23:25:32.917Z,1.50
2023-01-17T23:28:20.888Z,1.44
2023-01-17T23:30:53.375Z,1.43
2023-01-17T23:33:25.848Z,1.42
2023-01-17T23:35:58.206Z,1.39
2023-01-17T23:38:30.633Z,1.41
2023-01-17T23:41:25.311Z,1.40
2023-01-17T23:43:59.141Z,1.42
2023-01-17T23:46:31.443Z,1.44
2023-01-17T23:49:03.859Z,1.45
2023-01-17T23:51:36.153Z,1.44
2023-01-17T23:54:08.441Z,1.41
2023-01-17T23:56:40.611Z,1.41
2023-01-17T23:59:12.949Z,1.48
